CheckWX is a tool to help pilots better visualize weather data.  It is not intended as a substitute for an official pre-flight weather briefing.

12:33:47 UTC

ETHS METAR
Fassberg Airport
Germany
Current

1 hour ago

ETHS 261120Z 16004KT 1200 BR OVC001 01/01 Q1017 RED
Observed
Jan-26 @ 11:20 UTC
Wind
  • 160° at 4 KTS
Visibility
1,200 meters
Flight Rules
LIFR
Conditions
Mist
Cloud Levels
  • Overcast at 100' AGL
Temperature
C / 34°F
Dewpoint
C / 34°F
Humidity
100%
Altimeter
30.03" Hg
Pressure
1016.92 hPa
Previous

2 hours ago

ETHS 261020Z 17005KT 1200 BR OVC001 01/00 Q1018 RED
Observed
Jan-26 @ 10:20 UTC
Wind
  • 170° at 5 KTS
Visibility
1,200 meters
Flight Rules
LIFR
Conditions
Mist
Cloud Levels
  • Overcast at 100' AGL
Temperature
C / 34°F
Dewpoint
C / 32°F
Humidity
93%
Altimeter
30.06" Hg
Pressure
1017.92 hPa
Previous

3 hours ago

ETHS 260920Z 20006KT 2000 BR OVC001 00/00 Q1018 RED
Observed
Jan-26 @ 09:20 UTC
Wind
  • 200° at 6 KTS
Visibility
2,000 meters
Flight Rules
LIFR
Conditions
Mist
Cloud Levels
  • Overcast at 100' AGL
Temperature
C / 32°F
Dewpoint
C / 32°F
Humidity
100%
Altimeter
30.06" Hg
Pressure
1017.92 hPa